Time;durP1;ratioP1;P1;durP2;ratioP2;P2;SDS_P1;SDS_P2;PMS_P1;PMS_P2;Temp;Humidity;BMP_temperature;BMP_pressure;BME280_temperature;BME280_humidity;BME280_pressure;Samples;Min_cycle;Max_cycle;Signal;HPM_P1;HPM_P2
2023/08/10 00:01:53;;;;;;;;;;;14.20;99.90;;;;;;5014453;28;19952;-69
2023/08/10 00:04:20;;;;;;;;;;;14.10;99.90;;;;;;5032894;28;19927;-69
2023/08/10 00:06:50;;;;;;;;;;;14.20;99.90;;;;;;5034463;28;19947;-69
2023/08/10 00:09:17;;;;;;;;;;;14.10;99.90;;;;;;5034022;28;19921;-69
2023/08/10 00:11:45;;;;;;;;;;;14.00;99.90;;;;;;5034048;28;19921;-68
2023/08/10 00:14:13;;;;;;;;;;;14.00;99.90;;;;;;5034133;28;19920;-69
2023/08/10 00:16:41;;;;;;;;;;;13.90;99.90;;;;;;5034242;28;19928;-69
2023/08/10 00:19:09;;;;;;;;;;;13.90;99.90;;;;;;5033814;28;19927;-69
2023/08/10 00:21:36;;;;;;;;;;;13.90;99.90;;;;;;5034023;28;19921;-71
2023/08/10 00:24:06;;;;;;;;;;;13.90;99.90;;;;;;5033779;28;19936;-69
2023/08/10 00:26:34;;;;;;;;;;;13.80;99.90;;;;;;5018199;28;19975;-69
2023/08/10 00:29:02;;;;;;;;;;;13.80;99.90;;;;;;5028661;28;19921;-69
2023/08/10 00:31:29;;;;;;;;;;;13.80;99.90;;;;;;5014089;28;19945;-69
2023/08/10 00:33:57;;;;;;;;;;;13.80;99.90;;;;;;5028795;28;19925;-69
2023/08/10 00:36:25;;;;;;;;;;;13.80;99.90;;;;;;5033582;28;19923;-72
2023/08/10 00:38:53;;;;;;;;;;;13.70;99.90;;;;;;5033568;28;19933;-69
2023/08/10 00:41:22;;;;;;;;;;;13.70;99.90;;;;;;5033587;28;20395;-69
2023/08/10 00:43:50;;;;;;;;;;;13.80;99.90;;;;;;5033571;28;20347;-69
2023/08/10 00:46:17;;;;;;;;;;;13.70;99.90;;;;;;5033565;28;20300;-72
2023/08/10 00:48:45;;;;;;;;;;;13.70;99.90;;;;;;5033392;28;19920;-69
2023/08/10 00:51:13;;;;;;;;;;;13.60;99.90;;;;;;5033352;28;20342;-69
2023/08/10 00:53:41;;;;;;;;;;;13.60;99.90;;;;;;5033070;28;19921;-69
2023/08/10 00:56:10;;;;;;;;;;;13.50;99.90;;;;;;5033517;28;19921;-68
2023/08/10 00:58:41;;;;;;;;;;;13.50;99.90;;;;;;5031325;28;19921;-72
2023/08/10 01:01:09;;;;;;;;;;;13.50;99.90;;;;;;5013678;28;19976;-69
2023/08/10 01:03:37;;;;;;;;;;;13.50;99.90;;;;;;5016989;28;19928;-70
2023/08/10 01:06:10;;;;;;;;;;;13.50;99.90;;;;;;5033332;28;19921;-68
2023/08/10 01:08:42;;;;;;;;;;;13.50;99.90;;;;;;5017405;28;19921;-69
2023/08/10 01:11:15;;;;;;;;;;;13.40;99.90;;;;;;5032811;28;19925;-69
2023/08/10 01:13:48;;;;;;;;;;;13.40;99.90;;;;;;5032613;28;19987;-69
2023/08/10 01:16:16;;;;;;;;;;;13.40;99.90;;;;;;5033034;28;19925;-70
2023/08/10 01:18:44;;;;;;;;;;;13.40;99.90;;;;;;5032650;28;20015;-68
2023/08/10 01:21:16;;;;;;;;;;;13.50;99.90;;;;;;5033095;28;20285;-69
2023/08/10 01:23:47;;;;;;;;;;;13.50;99.90;;;;;;5018279;28;19935;-72
2023/08/10 01:26:17;;;;;;;;;;;13.50;99.90;;;;;;5032812;28;19928;-69
2023/08/10 01:28:45;;;;;;;;;;;13.50;99.90;;;;;;5029690;28;19925;-69
2023/08/10 01:31:12;;;;;;;;;;;13.50;99.90;;;;;;5013239;28;19922;-69
2023/08/10 01:33:40;;;;;;;;;;;13.50;99.90;;;;;;5016827;28;20375;-70
2023/08/10 01:36:08;;;;;;;;;;;13.50;99.90;;;;;;5032724;28;20384;-70
2023/08/10 01:38:36;;;;;;;;;;;13.60;99.90;;;;;;5032194;28;19928;-69
2023/08/10 01:41:03;;;;;;;;;;;13.70;99.90;;;;;;5032464;28;19925;-69
2023/08/10 01:43:33;;;;;;;;;;;13.70;99.90;;;;;;5032660;28;19928;-69
2023/08/10 01:46:01;;;;;;;;;;;13.80;99.90;;;;;;5032615;28;20110;-69
2023/08/10 01:48:31;;;;;;;;;;;13.80;99.90;;;;;;5032054;28;19925;-69
2023/08/10 01:51:01;;;;;;;;;;;13.80;99.90;;;;;;5032441;28;20384;-69
2023/08/10 01:53:30;;;;;;;;;;;13.90;99.90;;;;;;5031813;28;20339;-69
2023/08/10 01:55:58;;;;;;;;;;;13.90;99.90;;;;;;5032701;28;19928;-69
2023/08/10 01:58:26;;;;;;;;;;;14.00;99.90;;;;;;5031494;28;19948;-69
2023/08/10 02:00:55;;;;;;;;;;;14.00;99.90;;;;;;5020411;28;19925;-70
2023/08/10 02:03:23;;;;;;;;;;;14.00;99.90;;;;;;5021364;28;19921;-69
2023/08/10 02:05:51;;;;;;;;;;;14.00;99.90;;;;;;5032735;28;19925;-69
2023/08/10 02:08:18;;;;;;;;;;;14.00;99.90;;;;;;5031529;28;19925;-69
2023/08/10 02:10:46;;;;;;;;;;;14.10;99.90;;;;;;5032223;28;20426;-70
2023/08/10 02:13:15;;;;;;;;;;;14.00;99.90;;;;;;5031995;28;19921;-69
2023/08/10 02:15:43;;;;;;;;;;;14.00;99.90;;;;;;5015875;28;19979;-69
2023/08/10 02:18:13;;;;;;;;;;;14.00;99.90;;;;;;5031580;28;20447;-70
2023/08/10 02:20:41;;;;;;;;;;;14.00;99.90;;;;;;5031618;28;19921;-69
2023/08/10 02:23:09;;;;;;;;;;;14.00;99.90;;;;;;5031573;28;19951;-70
2023/08/10 02:25:36;;;;;;;;;;;14.00;99.90;;;;;;5031763;28;19925;-69
2023/08/10 02:28:04;;;;;;;;;;;14.00;99.90;;;;;;5031442;28;19971;-66
2023/08/10 02:30:32;;;;;;;;;;;14.00;99.90;;;;;;5014146;28;19980;-69
2023/08/10 02:33:00;;;;;;;;;;;14.00;99.90;;;;;;5017508;28;20387;-69
2023/08/10 02:35:29;;;;;;;;;;;14.00;99.90;;;;;;5031594;28;19974;-69
2023/08/10 02:37:57;;;;;;;;;;;13.90;99.90;;;;;;5031424;28;19928;-68
2023/08/10 02:40:25;;;;;;;;;;;13.90;99.90;;;;;;5031447;28;19928;-69
2023/08/10 02:42:52;;;;;;;;;;;13.90;99.90;;;;;;5031564;28;19932;-69
2023/08/10 02:45:20;;;;;;;;;;;13.90;99.90;;;;;;5031621;28;19971;-71
2023/08/10 02:47:48;;;;;;;;;;;13.90;99.90;;;;;;5031298;28;19979;-70
2023/08/10 02:50:16;;;;;;;;;;;13.90;99.90;;;;;;5031218;28;20003;-71
2023/08/10 02:52:46;;;;;;;;;;;13.90;99.90;;;;;;5031382;28;19921;-71
2023/08/10 02:55:17;;;;;;;;;;;13.90;99.90;;;;;;5031419;28;19926;-69
2023/08/10 02:57:45;;;;;;;;;;;13.90;99.90;;;;;;5031094;28;19925;-71
2023/08/10 03:00:13;;;;;;;;;;;13.80;99.90;;;;;;5016351;28;19933;-69
2023/08/10 03:02:41;;;;;;;;;;;13.80;99.90;;;;;;5013943;28;19929;-70
2023/08/10 03:05:09;;;;;;;;;;;13.90;99.90;;;;;;5031358;28;19990;-69
2023/08/10 03:07:37;;;;;;;;;;;13.90;99.90;;;;;;5031312;28;19921;-69
2023/08/10 03:10:07;;;;;;;;;;;13.80;99.90;;;;;;5031046;28;19924;-69
2023/08/10 03:12:37;;;;;;;;;;;13.90;99.90;;;;;;5031208;28;20012;-70
2023/08/10 03:15:09;;;;;;;;;;;13.80;99.90;;;;;;5031221;28;20458;-69
2023/08/10 03:17:37;;;;;;;;;;;13.80;99.90;;;;;;5031253;28;19960;-69
2023/08/10 03:20:06;;;;;;;;;;;13.70;99.90;;;;;;5031061;28;19967;-69
2023/08/10 03:22:34;;;;;;;;;;;13.70;99.90;;;;;;5031147;28;20007;-68
2023/08/10 03:25:02;;;;;;;;;;;13.70;99.90;;;;;;5031123;28;20318;-71
2023/08/10 03:27:33;;;;;;;;;;;13.70;99.90;;;;;;5030982;28;19975;-69
2023/08/10 03:30:01;;;;;;;;;;;13.70;99.90;;;;;;5017387;28;19975;-69
2023/08/10 03:32:29;;;;;;;;;;;13.70;99.90;;;;;;5012061;28;20338;-71
2023/08/10 03:34:57;;;;;;;;;;;13.60;99.90;;;;;;5031765;28;19921;-71
2023/08/10 03:37:25;;;;;;;;;;;13.60;99.90;;;;;;5035077;28;19925;-69
2023/08/10 03:39:53;;;;;;;;;;;13.60;99.90;;;;;;5034509;28;19928;-71
2023/08/10 03:42:21;;;;;;;;;;;13.60;99.90;;;;;;5017116;28;19921;-68
2023/08/10 03:44:50;;;;;;;;;;;13.60;99.90;;;;;;5034904;28;20335;-69
2023/08/10 03:47:17;;;;;;;;;;;13.60;99.90;;;;;;5034826;28;20331;-69
2023/08/10 03:49:45;;;;;;;;;;;13.60;99.90;;;;;;5034195;28;19921;-72
2023/08/10 03:52:13;;;;;;;;;;;13.50;99.90;;;;;;5034679;28;19929;-69
2023/08/10 03:54:41;;;;;;;;;;;13.40;99.90;;;;;;5056470;22;19975;-68
2023/08/10 03:57:08;;;;;;;;;;;13.40;99.90;;;;;;5034655;28;19921;-68
2023/08/10 03:59:36;;;;;;;;;;;13.30;99.90;;;;;;5023910;28;19932;-68
2023/08/10 04:02:05;;;;;;;;;;;13.40;99.90;;;;;;5019715;28;19932;-68
2023/08/10 04:04:34;;;;;;;;;;;13.40;99.90;;;;;;5034253;28;19925;-68
2023/08/10 04:07:01;;;;;;;;;;;13.40;99.90;;;;;;5034644;28;19921;-68
2023/08/10 04:09:29;;;;;;;;;;;13.50;99.90;;;;;;5034028;28;19921;-68
2023/08/10 04:11:57;;;;;;;;;;;13.50;99.90;;;;;;5034434;28;19924;-68
2023/08/10 04:14:25;;;;;;;;;;;13.50;99.90;;;;;;5034304;28;19925;-67
2023/08/10 04:16:53;;;;;;;;;;;13.50;99.90;;;;;;5034241;28;19925;-68
2023/08/10 04:19:22;;;;;;;;;;;13.50;99.90;;;;;;5033925;28;20068;-68
2023/08/10 04:21:51;;;;;;;;;;;13.60;99.90;;;;;;5034151;28;20151;-68
2023/08/10 04:24:19;;;;;;;;;;;13.50;99.90;;;;;;5034123;28;19929;-68
2023/08/10 04:26:47;;;;;;;;;;;13.50;99.90;;;;;;5033918;28;19925;-68
2023/08/10 04:29:16;;;;;;;;;;;13.50;99.90;;;;;;5026738;28;20347;-67
2023/08/10 04:31:43;;;;;;;;;;;13.60;99.90;;;;;;5015959;28;19928;-68
2023/08/10 04:34:11;;;;;;;;;;;13.50;99.90;;;;;;5020957;28;19928;-68
2023/08/10 04:36:40;;;;;;;;;;;13.60;99.90;;;;;;5013862;28;19929;-68
2023/08/10 04:39:08;;;;;;;;;;;13.60;99.90;;;;;;5013859;28;19940;-68
2023/08/10 04:41:36;;;;;;;;;;;13.50;99.90;;;;;;5013810;28;19975;-68
2023/08/10 04:44:04;;;;;;;;;;;13.60;99.90;;;;;;5013835;28;19921;-68
2023/08/10 04:46:31;;;;;;;;;;;13.60;99.90;;;;;;5013680;28;19983;-67
2023/08/10 04:48:59;;;;;;;;;;;13.70;99.90;;;;;;5013694;28;19928;-67
2023/08/10 04:51:27;;;;;;;;;;;13.70;99.90;;;;;;5013832;28;19922;-68
2023/08/10 04:53:56;;;;;;;;;;;13.70;99.90;;;;;;5013294;28;20276;-68
2023/08/10 04:56:24;;;;;;;;;;;13.80;99.90;;;;;;5013929;28;20388;-68
2023/08/10 04:58:52;;;;;;;;;;;13.90;99.90;;;;;;5013445;28;19980;-68
2023/08/10 05:01:20;;;;;;;;;;;14.00;99.90;;;;;;5013524;28;19921;-68
2023/08/10 05:03:48;;;;;;;;;;;14.00;99.90;;;;;;5013064;28;19921;-68
2023/08/10 05:06:17;;;;;;;;;;;14.10;99.90;;;;;;5013726;28;20289;-68
2023/08/10 05:08:44;;;;;;;;;;;14.20;99.90;;;;;;5031229;28;20011;-68
2023/08/10 05:11:14;;;;;;;;;;;14.30;99.90;;;;;;5033243;28;19925;-68
2023/08/10 05:13:42;;;;;;;;;;;14.30;99.90;;;;;;5033031;28;20028;-68
2023/08/10 05:16:09;;;;;;;;;;;14.40;99.90;;;;;;5033169;28;19921;-68
2023/08/10 05:18:37;;;;;;;;;;;14.50;99.90;;;;;;5033049;28;20020;-68
2023/08/10 05:21:05;;;;;;;;;;;14.50;99.90;;;;;;5033058;28;19921;-68
2023/08/10 05:23:33;;;;;;;;;;;14.50;99.90;;;;;;5032905;28;19971;-68
2023/08/10 05:26:01;;;;;;;;;;;14.60;99.90;;;;;;5017080;28;19921;-68
2023/08/10 05:28:30;;;;;;;;;;;14.60;99.90;;;;;;5032856;28;19925;-68
2023/08/10 05:30:57;;;;;;;;;;;14.50;99.90;;;;;;5032570;28;19921;-68
2023/08/10 05:33:25;;;;;;;;;;;14.60;99.90;;;;;;5028080;28;19927;-68
2023/08/10 05:35:53;;;;;;;;;;;14.60;99.90;;;;;;5012850;28;19944;-68
2023/08/10 05:38:21;;;;;;;;;;;14.60;99.90;;;;;;5027221;28;20441;-68
2023/08/10 05:40:48;;;;;;;;;;;14.60;99.90;;;;;;5032324;28;19925;-68
2023/08/10 05:43:16;;;;;;;;;;;14.70;99.90;;;;;;5032417;28;19925;-68
2023/08/10 05:45:46;;;;;;;;;;;14.70;99.90;;;;;;5032871;28;19925;-68
2023/08/10 05:48:14;;;;;;;;;;;14.70;99.90;;;;;;5032723;28;19925;-68
2023/08/10 05:50:42;;;;;;;;;;;14.80;99.90;;;;;;5032287;28;20350;-67
2023/08/10 05:53:10;;;;;;;;;;;14.90;99.90;;;;;;5032900;28;19937;-67
2023/08/10 05:55:38;;;;;;;;;;;14.90;99.90;;;;;;5031930;28;19983;-68
2023/08/10 05:58:06;;;;;;;;;;;15.00;99.90;;;;;;5031762;28;19921;-68
2023/08/10 06:00:36;;;;;;;;;;;15.00;99.90;;;;;;5032144;28;19925;-68
2023/08/10 06:03:05;;;;;;;;;;;15.00;99.90;;;;;;5022434;28;20414;-67
2023/08/10 06:05:36;;;;;;;;;;;15.20;99.90;;;;;;5012578;28;20307;-67
2023/08/10 06:08:04;;;;;;;;;;;15.20;99.90;;;;;;5023995;28;19921;-68
2023/08/10 06:10:32;;;;;;;;;;;15.10;99.90;;;;;;5032013;28;19932;-68
2023/08/10 06:12:59;;;;;;;;;;;15.10;99.90;;;;;;5031816;28;19935;-67
2023/08/10 06:15:27;;;;;;;;;;;15.20;99.90;;;;;;5032046;28;20372;-68
2023/08/10 06:17:55;;;;;;;;;;;15.30;99.90;;;;;;5032070;28;19967;-67
2023/08/10 06:20:26;;;;;;;;;;;15.40;99.90;;;;;;5031814;28;19979;-68
2023/08/10 06:22:54;;;;;;;;;;;15.50;99.90;;;;;;5031670;28;19921;-68
2023/08/10 06:25:23;;;;;;;;;;;15.70;99.90;;;;;;5031915;28;19974;-67
2023/08/10 06:27:51;;;;;;;;;;;15.80;99.90;;;;;;5031583;28;19921;-68
2023/08/10 06:30:19;;;;;;;;;;;15.90;99.90;;;;;;5031738;28;19983;-67
2023/08/10 06:32:47;;;;;;;;;;;15.80;99.90;;;;;;5031606;28;19928;-68
2023/08/10 06:35:15;;;;;;;;;;;15.80;99.90;;;;;;5012049;28;19925;-68
2023/08/10 06:37:44;;;;;;;;;;;15.80;99.90;;;;;;5020087;28;19925;-68
2023/08/10 06:40:14;;;;;;;;;;;16.00;99.90;;;;;;5031637;28;19921;-67
2023/08/10 06:42:42;;;;;;;;;;;16.20;99.90;;;;;;5031541;28;20305;-68
2023/08/10 06:45:10;;;;;;;;;;;16.50;99.90;;;;;;5031425;28;20276;-68
2023/08/10 06:47:38;;;;;;;;;;;16.60;99.90;;;;;;5031655;28;19928;-69
2023/08/10 06:50:08;;;;;;;;;;;16.60;99.90;;;;;;5031128;28;19925;-68
2023/08/10 06:52:36;;;;;;;;;;;16.70;99.90;;;;;;5031494;28;19921;-69
2023/08/10 06:55:06;;;;;;;;;;;16.80;99.90;;;;;;5030876;28;19933;-69
2023/08/10 06:57:35;;;;;;;;;;;16.80;99.90;;;;;;5031642;28;20016;-68
2023/08/10 07:00:07;;;;;;;;;;;16.80;99.90;;;;;;5031279;28;19921;-68
2023/08/10 07:02:37;;;;;;;;;;;16.90;99.90;;;;;;5031363;28;19921;-68
2023/08/10 07:05:06;;;;;;;;;;;16.90;99.90;;;;;;5012875;28;19976;-68
2023/08/10 07:07:34;;;;;;;;;;;16.80;99.90;;;;;;5018586;28;20019;-68
2023/08/10 07:10:05;;;;;;;;;;;16.90;99.90;;;;;;5031951;28;19921;-68
2023/08/10 07:12:34;;;;;;;;;;;16.90;99.90;;;;;;5035301;28;19921;-69
2023/08/10 07:15:02;;;;;;;;;;;17.00;99.90;;;;;;5035208;28;20411;-69
2023/08/10 07:17:30;;;;;;;;;;;17.00;99.90;;;;;;5035461;28;19921;-69
2023/08/10 07:19:58;;;;;;;;;;;17.10;99.90;;;;;;5035173;28;19921;-69
2023/08/10 07:22:26;;;;;;;;;;;17.20;99.90;;;;;;5035005;28;19924;-68
2023/08/10 07:24:54;;;;;;;;;;;17.30;99.90;;;;;;5034983;28;19921;-68
2023/08/10 07:27:22;;;;;;;;;;;17.30;99.90;;;;;;5035235;28;20016;-69
2023/08/10 07:29:51;;;;;;;;;;;17.40;99.90;;;;;;5034924;28;20388;-68
2023/08/10 07:32:20;;;;;;;;;;;17.60;99.90;;;;;;5016591;28;20304;-68
2023/08/10 07:34:48;;;;;;;;;;;17.60;99.90;;;;;;5018935;28;19929;-68
2023/08/10 07:37:17;;;;;;;;;;;17.70;99.90;;;;;;5019366;28;19921;-68
2023/08/10 07:39:44;;;;;;;;;;;17.80;99.90;;;;;;5034880;28;19921;-68
2023/08/10 07:42:12;;;;;;;;;;;17.90;99.90;;;;;;5019072;28;19957;-68
2023/08/10 07:44:40;;;;;;;;;;;18.10;99.90;;;;;;5034880;28;19920;-68
2023/08/10 07:47:09;;;;;;;;;;;18.20;99.90;;;;;;5034774;28;20392;-68
2023/08/10 07:49:37;;;;;;;;;;;18.30;99.90;;;;;;5034667;28;19925;-68
2023/08/10 07:52:05;;;;;;;;;;;18.40;99.90;;;;;;5034634;28;19921;-69
2023/08/10 07:54:33;;;;;;;;;;;18.50;99.90;;;;;;5034367;28;19944;-68
2023/08/10 07:57:01;;;;;;;;;;;18.70;99.90;;;;;;5016336;28;19920;-68
2023/08/10 07:59:29;;;;;;;;;;;19.00;99.90;;;;;;5034447;28;19990;-69
2023/08/10 08:01:57;;;;;;;;;;;19.00;99.90;;;;;;5034646;28;19948;-68
2023/08/10 08:04:26;;;;;;;;;;;19.00;99.90;;;;;;5021814;28;19956;-68
2023/08/10 08:06:54;;;;;;;;;;;19.10;99.90;;;;;;5015283;28;19922;-69
2023/08/10 08:09:22;;;;;;;;;;;19.30;99.90;;;;;;5034385;28;19999;-69
2023/08/10 08:11:50;;;;;;;;;;;19.40;99.90;;;;;;5034180;28;19921;-68
2023/08/10 08:14:18;;;;;;;;;;;19.40;99.90;;;;;;5034610;28;19936;-68
2023/08/10 08:16:46;;;;;;;;;;;19.40;99.90;;;;;;5034637;28;20019;-68
2023/08/10 08:19:14;;;;;;;;;;;19.50;99.90;;;;;;5034247;28;19921;-68
2023/08/10 08:21:46;;;;;;;;;;;19.50;99.90;;;;;;5033577;28;20397;-68
2023/08/10 08:24:14;;;;;;;;;;;19.60;99.90;;;;;;5034154;28;19928;-68
2023/08/10 08:26:41;;;;;;;;;;;19.70;99.90;;;;;;5034237;28;19924;-69
2023/08/10 08:29:09;;;;;;;;;;;19.90;99.90;;;;;;5033804;28;19928;-68
2023/08/10 08:31:37;;;;;;;;;;;20.00;99.90;;;;;;5033755;28;19928;-68
2023/08/10 08:34:05;;;;;;;;;;;20.20;99.90;;;;;;5023869;28;19976;-68
2023/08/10 08:36:33;;;;;;;;;;;20.30;99.90;;;;;;5014247;28;19922;-69
2023/08/10 08:39:02;;;;;;;;;;;20.50;99.90;;;;;;5031460;28;19921;-69
2023/08/10 08:41:34;;;;;;;;;;;20.70;99.90;;;;;;5033641;28;20236;-68
2023/08/10 08:44:03;;;;;;;;;;;20.80;99.90;;;;;;5033561;28;19924;-69
2023/08/10 08:46:32;;;;;;;;;;;21.10;99.90;;;;;;5033734;28;19921;-69
2023/08/10 08:49:00;;;;;;;;;;;21.30;99.90;;;;;;5033422;28;19921;-69
2023/08/10 08:51:29;;;;;;;;;;;21.60;99.90;;;;;;5033604;28;19921;-68
2023/08/10 08:54:00;;;;;;;;;;;21.80;99.90;;;;;;5033399;28;19921;-69
2023/08/10 08:56:29;;;;;;;;;;;22.00;99.90;;;;;;5033823;28;19925;-68
2023/08/10 08:58:59;;;;;;;;;;;22.00;99.90;;;;;;5033273;28;19947;-69
2023/08/10 09:01:27;;;;;;;;;;;21.90;99.90;;;;;;5033395;28;19931;-68
2023/08/10 09:03:55;;;;;;;;;;;22.10;99.90;;;;;;5024495;28;19922;-69
2023/08/10 09:06:23;;;;;;;;;;;22.20;99.90;;;;;;5017475;28;20346;-69
2023/08/10 09:08:51;;;;;;;;;;;22.30;99.90;;;;;;5033585;28;20295;-69
2023/08/10 09:11:19;;;;;;;;;;;22.30;99.90;;;;;;5033012;28;20346;-68
2023/08/10 09:14:02;;;;;;;;;;;22.50;99.90;;;;;;5033134;28;19921;-69
2023/08/10 09:16:31;;;;;;;;;;;22.70;99.90;;;;;;5011395;28;20015;-69
2023/08/10 09:18:59;;;;;;;;;;;23.20;99.90;;;;;;5032774;28;19928;-69
2023/08/10 09:21:31;;;;;;;;;;;23.50;99.90;;;;;;5033008;28;19921;-68
2023/08/10 09:23:58;;;;;;;;;;;23.60;99.90;;;;;;5032839;28;20300;-70
2023/08/10 09:26:26;;;;;;;;;;;23.60;99.90;;;;;;5032914;28;19925;-69
2023/08/10 09:28:55;;;;;;;;;;;23.60;99.90;;;;;;5032827;28;20388;-69
2023/08/10 09:31:24;;;;;;;;;;;23.70;99.90;;;;;;5016894;28;19975;-70
2023/08/10 09:33:56;;;;;;;;;;;23.80;99.90;;;;;;5023588;28;19925;-69
2023/08/10 09:36:25;;;;;;;;;;;23.90;99.90;;;;;;5016759;28;19929;-69
2023/08/10 09:38:53;;;;;;;;;;;23.90;99.90;;;;;;5032559;28;19940;-69
2023/08/10 09:41:22;;;;;;;;;;;23.70;99.90;;;;;;5032567;28;19947;-68
2023/08/10 09:43:51;;;;;;;;;;;23.90;99.90;;;;;;5032526;28;19921;-69
2023/08/10 09:46:19;;;;;;;;;;;23.80;99.90;;;;;;5032398;28;19929;-69
2023/08/10 09:48:48;;;;;;;;;;;24.00;99.90;;;;;;5032373;28;20350;-69
2023/08/10 09:51:18;;;;;;;;;;;24.30;99.90;;;;;;5032243;28;19921;-69
2023/08/10 09:53:46;;;;;;;;;;;24.60;99.90;;;;;;5032504;28;19975;-70
2023/08/10 09:56:14;;;;;;;;;;;25.00;99.90;;;;;;5032392;28;19925;-69
2023/08/10 09:58:42;;;;;;;;;;;25.10;99.90;;;;;;5032243;28;19955;-69
2023/08/10 10:01:10;;;;;;;;;;;25.40;99.90;;;;;;5032224;28;19921;-70
2023/08/10 10:03:43;;;;;;;;;;;25.70;99.90;;;;;;5025525;28;20341;-70
2023/08/10 10:06:13;;;;;;;;;;;26.00;99.90;;;;;;5013801;28;19929;-70
2023/08/10 10:08:46;;;;;;;;;;;25.90;99.90;;;;;;5032037;28;19921;-69
2023/08/10 10:11:15;;;;;;;;;;;26.10;99.90;;;;;;5032198;28;19936;-70
2023/08/10 10:13:42;;;;;;;;;;;26.20;99.90;;;;;;5031882;28;19951;-69
2023/08/10 10:16:11;;;;;;;;;;;25.80;99.90;;;;;;5031852;28;19921;-69
2023/08/10 10:18:40;;;;;;;;;;;25.60;99.90;;;;;;5031851;28;20012;-69
2023/08/10 10:21:08;;;;;;;;;;;25.50;99.90;;;;;;5031802;28;20012;-70
2023/08/10 10:23:40;;;;;;;;;;;25.60;99.90;;;;;;5031931;28;19925;-70
2023/08/10 10:26:10;;;;;;;;;;;25.80;99.90;;;;;;5031756;28;19928;-70
2023/08/10 10:28:40;;;;;;;;;;;25.90;99.90;;;;;;5031545;28;19921;-70
2023/08/10 10:31:09;;;;;;;;;;;26.00;99.90;;;;;;5031855;28;19922;-70
2023/08/10 10:33:53;;;;;;;;;;;26.20;99.90;;;;;;5025005;28;19936;-69
2023/08/10 10:36:21;;;;;;;;;;;26.00;99.90;;;;;;5010663;28;19925;-69
2023/08/10 10:38:54;;;;;;;;;;;26.10;99.90;;;;;;5011538;28;19929;-70
2023/08/10 10:41:30;;;;;;;;;;;26.50;99.90;;;;;;5011792;28;20331;-69
2023/08/10 10:43:59;;;;;;;;;;;26.50;99.90;;;;;;5011718;28;20304;-69
2023/08/10 10:46:40;;;;;;;;;;;26.60;99.90;;;;;;5011796;28;19926;-69
2023/08/10 10:49:12;;;;;;;;;;;26.60;99.90;;;;;;5011096;28;20388;-69
2023/08/10 10:51:43;;;;;;;;;;;26.90;99.90;;;;;;5011739;28;20427;-70
2023/08/10 10:54:12;;;;;;;;;;;27.30;99.90;;;;;;5011147;28;20004;-70
2023/08/10 10:56:41;;;;;;;;;;;27.60;99.90;;;;;;5012094;28;19921;-69
2023/08/10 10:59:09;;;;;;;;;;;27.80;99.90;;;;;;5011169;28;19984;-70
2023/08/10 11:01:37;;;;;;;;;;;27.80;99.90;;;;;;5011703;28;19952;-70
2023/08/10 11:04:06;;;;;;;;;;;27.80;99.90;;;;;;5011595;28;19925;-70
2023/08/10 11:06:37;;;;;;;;;;;27.20;99.90;;;;;;5011657;28;19925;-68
2023/08/10 11:09:07;;;;;;;;;;;26.30;99.90;;;;;;5027540;28;19921;-70
2023/08/10 11:11:35;;;;;;;;;;;26.20;99.90;;;;;;5016050;28;19956;-69
2023/08/10 11:14:05;;;;;;;;;;;26.40;99.90;;;;;;5031388;28;20281;-70
2023/08/10 11:16:35;;;;;;;;;;;26.70;99.90;;;;;;5031372;28;19928;-70
2023/08/10 11:19:08;;;;;;;;;;;26.90;99.50;;;;;;5031008;28;19963;-70
2023/08/10 11:21:37;;;;;;;;;;;26.90;99.90;;;;;;5016219;28;19928;-69
2023/08/10 11:24:06;;;;;;;;;;;27.20;99.90;;;;;;5031757;28;19929;-69
2023/08/10 11:26:34;;;;;;;;;;;27.70;98.60;;;;;;5015522;28;20358;-70
2023/08/10 11:29:02;;;;;;;;;;;28.10;99.90;;;;;;5031217;28;19971;-70
2023/08/10 11:31:38;;;;;;;;;;;28.30;99.10;;;;;;5031050;28;19928;-70
2023/08/10 11:34:18;;;;;;;;;;;28.60;96.70;;;;;;5029859;28;20032;-69
2023/08/10 11:36:46;;;;;;;;;;;28.90;96.00;;;;;;5011382;28;19925;-70
2023/08/10 11:39:15;;;;;;;;;;;29.00;96.90;;;;;;5028141;28;20372;-70
2023/08/10 11:41:43;;;;;;;;;;;28.80;96.90;;;;;;5031302;28;20044;-69
2023/08/10 11:44:21;;;;;;;;;;;29.00;96.50;;;;;;5030670;28;19961;-70
2023/08/10 11:46:50;;;;;;;;;;;29.10;95.30;;;;;;5030901;28;19927;-70
2023/08/10 11:49:18;;;;;;;;;;;29.10;96.30;;;;;;5030601;28;20414;-69
2023/08/10 11:51:46;;;;;;;;;;;29.00;92.50;;;;;;5031208;28;19932;-70
2023/08/10 11:54:14;;;;;;;;;;;28.90;93.40;;;;;;5030439;28;19925;-70
2023/08/10 11:56:45;;;;;;;;;;;28.90;93.60;;;;;;5032796;28;19928;-69
2023/08/10 11:59:14;;;;;;;;;;;29.00;92.30;;;;;;5034132;28;19967;-70
2023/08/10 12:01:45;;;;;;;;;;;29.20;90.40;;;;;;5034631;28;19982;-70
2023/08/10 12:04:15;;;;;;;;;;;29.30;90.30;;;;;;5033359;28;19921;-69
2023/08/10 12:06:47;;;;;;;;;;;29.10;91.10;;;;;;5014788;28;19925;-69
2023/08/10 12:09:16;;;;;;;;;;;29.30;90.10;;;;;;5031242;28;19920;-70
2023/08/10 12:11:46;;;;;;;;;;;29.20;91.10;;;;;;5034384;28;19975;-69
2023/08/10 12:14:18;;;;;;;;;;;29.10;88.30;;;;;;5034201;28;19948;-70
2023/08/10 12:16:46;;;;;;;;;;;29.00;89.20;;;;;;5034326;28;19967;-70
2023/08/10 12:19:16;;;;;;;;;;;29.10;87.30;;;;;;5033846;28;20019;-70
2023/08/10 12:21:45;;;;;;;;;;;29.10;90.20;;;;;;5034336;28;20032;-70
2023/08/10 12:24:13;;;;;;;;;;;29.20;88.10;;;;;;5033834;28;19921;-69
2023/08/10 12:26:41;;;;;;;;;;;29.10;90.00;;;;;;5034214;28;20458;-70
2023/08/10 12:29:12;;;;;;;;;;;28.90;87.50;;;;;;5033937;28;20019;-70
2023/08/10 12:31:41;;;;;;;;;;;29.20;88.40;;;;;;5034103;28;19921;-71
2023/08/10 12:34:09;;;;;;;;;;;29.00;87.40;;;;;;5033322;28;19928;-70
2023/08/10 12:36:38;;;;;;;;;;;29.00;90.60;;;;;;5014268;28;19921;-70
2023/08/10 12:39:07;;;;;;;;;;;29.20;88.60;;;;;;5029217;28;19967;-70
2023/08/10 12:41:35;;;;;;;;;;;28.90;90.80;;;;;;5033792;28;19921;-69
2023/08/10 12:44:03;;;;;;;;;;;29.10;90.40;;;;;;5033734;28;19925;-70
2023/08/10 12:46:31;;;;;;;;;;;29.80;91.00;;;;;;5033544;28;20015;-70
2023/08/10 12:48:59;;;;;;;;;;;30.10;89.20;;;;;;5033209;28;20336;-69
2023/08/10 12:51:26;;;;;;;;;;;30.60;85.90;;;;;;5033480;28;19936;-69
2023/08/10 12:53:56;;;;;;;;;;;31.10;85.90;;;;;;5033368;28;19921;-70
2023/08/10 12:56:23;;;;;;;;;;;31.40;85.40;;;;;;5033687;28;19921;-70
2023/08/10 12:58:51;;;;;;;;;;;31.50;84.30;;;;;;5033328;28;19921;-70
2023/08/10 13:01:19;;;;;;;;;;;31.70;84.00;;;;;;5033345;28;19928;-69
2023/08/10 13:03:47;;;;;;;;;;;31.80;84.90;;;;;;5033188;28;19921;-70
2023/08/10 13:06:14;;;;;;;;;;;31.70;84.10;;;;;;5015712;28;19957;-70
2023/08/10 13:08:42;;;;;;;;;;;32.00;79.80;;;;;;5016979;28;19924;-69
2023/08/10 13:11:11;;;;;;;;;;;32.10;82.70;;;;;;5033361;28;20280;-69
2023/08/10 13:13:39;;;;;;;;;;;32.30;80.10;;;;;;5032985;28;20422;-69
2023/08/10 13:16:07;;;;;;;;;;;32.60;77.30;;;;;;5033159;28;19929;-70
2023/08/10 13:18:35;;;;;;;;;;;32.60;80.70;;;;;;5032664;28;20028;-70
2023/08/10 13:21:03;;;;;;;;;;;32.30;76.30;;;;;;5033175;28;19921;-70
2023/08/10 13:23:31;;;;;;;;;;;32.40;77.50;;;;;;5032882;28;19928;-70
2023/08/10 13:25:58;;;;;;;;;;;32.60;78.30;;;;;;5033002;28;20506;-69
2023/08/10 13:28:28;;;;;;;;;;;32.40;79.60;;;;;;5032620;28;19925;-69
2023/08/10 13:30:56;;;;;;;;;;;32.80;79.90;;;;;;5032816;28;19925;-69
2023/08/10 13:33:23;;;;;;;;;;;32.90;78.00;;;;;;5032684;28;19928;-69
2023/08/10 13:35:51;;;;;;;;;;;32.90;76.50;;;;;;5018296;28;19929;-70
2023/08/10 13:38:19;;;;;;;;;;;32.60;75.90;;;;;;5020983;28;19986;-69
2023/08/10 13:40:47;;;;;;;;;;;32.30;77.20;;;;;;5032764;28;19921;-70
2023/08/10 13:43:14;;;;;;;;;;;31.60;77.10;;;;;;5032658;28;19921;-70
2023/08/10 13:45:43;;;;;;;;;;;31.50;79.20;;;;;;5032444;28;19925;-70
2023/08/10 13:48:11;;;;;;;;;;;31.30;79.80;;;;;;5032407;28;19921;-69
2023/08/10 13:50:39;;;;;;;;;;;31.70;79.10;;;;;;5032392;28;19925;-69
2023/08/10 13:53:07;;;;;;;;;;;32.20;77.50;;;;;;5032517;28;19921;-70
2023/08/10 13:55:35;;;;;;;;;;;32.30;75.90;;;;;;5032016;28;19921;-70
2023/08/10 13:58:05;;;;;;;;;;;32.10;76.20;;;;;;5032180;28;19928;-69
2023/08/10 14:00:33;;;;;;;;;;;32.30;77.30;;;;;;5032115;28;19967;-69
2023/08/10 14:03:03;;;;;;;;;;;32.80;77.40;;;;;;5032357;28;19924;-70
2023/08/10 14:05:33;;;;;;;;;;;32.10;75.80;;;;;;5020127;28;19921;-70
2023/08/10 14:08:01;;;;;;;;;;;31.90;76.10;;;;;;5017634;28;20343;-69
2023/08/10 14:10:29;;;;;;;;;;;32.10;78.80;;;;;;5031866;28;19924;-69
2023/08/10 14:12:57;;;;;;;;;;;32.50;78.20;;;;;;5032169;28;19925;-70
2023/08/10 14:15:24;;;;;;;;;;;32.20;77.50;;;;;;5031854;28;19921;-69
2023/08/10 14:17:53;;;;;;;;;;;32.50;78.00;;;;;;5031942;28;19925;-69
2023/08/10 14:20:23;;;;;;;;;;;32.40;74.90;;;;;;5031522;28;20449;-70
2023/08/10 14:22:50;;;;;;;;;;;32.50;75.00;;;;;;5016598;28;19921;-69
2023/08/10 14:25:19;;;;;;;;;;;32.20;75.00;;;;;;5031941;28;19925;-70